createdAt,value
2018-12-21T00:02:12.524Z,80.90
2018-12-21T00:04:42.205Z,80.10
2018-12-21T00:07:10.824Z,80.10
2018-12-21T00:09:39.524Z,79.80
2018-12-21T00:12:08.282Z,79.90
2018-12-21T00:14:36.993Z,80.00
2018-12-21T00:17:05.813Z,80.20
2018-12-21T00:19:34.915Z,80.30
2018-12-21T00:22:04.069Z,80.10
2018-12-21T00:24:33.653Z,80.40
2018-12-21T00:27:02.984Z,80.50
2018-12-21T00:29:31.597Z,80.20
2018-12-21T00:32:06.125Z,80.60
2018-12-21T00:34:40.495Z,80.90
2018-12-21T00:37:14.863Z,80.60
2018-12-21T00:39:48.694Z,81.00
2018-12-21T00:42:38.736Z,80.90
2018-12-21T00:45:12.200Z,80.80
2018-12-21T00:47:41.068Z,81.10
2018-12-21T00:50:10.651Z,80.90
2018-12-21T00:52:39.267Z,80.80
2018-12-21T00:55:08.115Z,80.70
2018-12-21T00:57:36.920Z,81.00
2018-12-21T01:00:07.221Z,81.10
2018-12-21T01:02:36.081Z,80.80
2018-12-21T01:05:04.941Z,80.80
2018-12-21T01:07:33.747Z,80.60
2018-12-21T01:10:03.313Z,81.00
2018-12-21T01:12:32.881Z,80.90
2018-12-21T01:15:01.703Z,80.80
2018-12-21T01:17:30.781Z,80.90
2018-12-21T01:19:59.736Z,80.40
2018-12-21T01:22:28.429Z,80.40
2018-12-21T01:24:57.415Z,80.30
2018-12-21T01:27:26.321Z,80.30
2018-12-21T01:29:55.857Z,80.00
2018-12-21T01:32:24.504Z,80.10
2018-12-21T01:34:53.601Z,80.10
2018-12-21T01:37:22.766Z,80.10
2018-12-21T01:39:52.188Z,80.10
2018-12-21T01:42:21.637Z,80.00
2018-12-21T01:44:50.213Z,80.40
2018-12-21T01:47:18.854Z,80.30
2018-12-21T01:49:47.538Z,80.40
2018-12-21T01:52:16.246Z,79.80
2018-12-21T01:54:44.967Z,80.00
2018-12-21T01:57:13.694Z,80.00
2018-12-21T01:59:42.500Z,79.90
2018-12-21T02:02:11.202Z,79.90
2018-12-21T02:04:39.896Z,80.10
2018-12-21T02:07:09.331Z,80.10
2018-12-21T02:09:37.995Z,80.00
2018-12-21T02:12:06.639Z,80.00
2018-12-21T02:14:36.046Z,79.80
2018-12-21T02:17:04.676Z,79.60
2018-12-21T02:19:34.055Z,79.80
2018-12-21T02:22:02.969Z,79.50
2018-12-21T02:24:32.370Z,79.70
2018-12-21T02:27:01.466Z,79.60
2018-12-21T02:29:30.329Z,79.50
2018-12-21T02:31:59.044Z,79.40
2018-12-21T02:34:28.233Z,79.40
2018-12-21T02:36:57.116Z,78.80
2018-12-21T02:39:26.544Z,79.40
2018-12-21T02:41:56.013Z,79.70
2018-12-21T02:44:24.900Z,79.40
2018-12-21T02:46:53.767Z,78.90
2018-12-21T02:49:22.561Z,78.70
2018-12-21T02:51:51.586Z,78.50
2018-12-21T02:54:20.197Z,78.50
2018-12-21T02:56:49.503Z,78.80
2018-12-21T02:59:18.590Z,78.80
2018-12-21T03:01:47.636Z,78.90
2018-12-21T03:04:17.087Z,79.20
2018-12-21T03:06:46.184Z,78.90
2018-12-21T03:09:15.180Z,79.20
2018-12-21T03:11:44.688Z,79.30
2018-12-21T03:14:13.447Z,79.10
2018-12-21T03:16:42.340Z,79.20
2018-12-21T03:19:11.212Z,79.00
2018-12-21T03:21:39.923Z,79.30
2018-12-21T03:24:08.519Z,80.10
2018-12-21T03:26:38.026Z,79.70
2018-12-21T03:29:06.878Z,79.50
2018-12-21T03:31:35.646Z,79.90
2018-12-21T03:34:04.473Z,79.80
2018-12-21T03:36:33.601Z,80.20
2018-12-21T03:39:02.543Z,80.20
2018-12-21T03:41:31.243Z,80.20
2018-12-21T03:44:00.665Z,80.20
2018-12-21T03:46:30.230Z,80.40
2018-12-21T03:48:58.961Z,81.40
2018-12-21T03:51:27.513Z,80.90
2018-12-21T03:53:57.202Z,80.80
2018-12-21T03:56:25.933Z,81.40
2018-12-21T03:58:57.641Z,80.80
2018-12-21T04:01:26.913Z,80.80
2018-12-21T04:03:56.383Z,80.40
2018-12-21T04:06:25.303Z,80.90
2018-12-21T04:08:54.303Z,80.50
2018-12-21T04:11:23.098Z,80.10
2018-12-21T04:13:52.583Z,80.70
2018-12-21T04:16:21.590Z,80.10
2018-12-21T04:18:50.441Z,80.10
2018-12-21T04:21:19.102Z,79.80
2018-12-21T04:23:47.956Z,79.50
2018-12-21T04:26:17.311Z,79.30
2018-12-21T04:28:46.757Z,79.20
2018-12-21T04:31:15.350Z,79.60
2018-12-21T04:33:43.990Z,79.20
2018-12-21T04:36:13.358Z,78.80
2018-12-21T04:38:43.167Z,78.90
2018-12-21T04:41:11.799Z,78.80
2018-12-21T04:43:41.134Z,78.50
2018-12-21T04:46:10.646Z,78.30
2018-12-21T04:48:39.377Z,78.50
2018-12-21T04:51:08.613Z,78.50
2018-12-21T04:53:38.341Z,78.20
2018-12-21T04:56:07.714Z,78.90
2018-12-21T04:58:37.151Z,78.30
2018-12-21T05:01:06.537Z,78.40
2018-12-21T05:03:35.475Z,78.50
2018-12-21T05:06:04.373Z,78.40
2018-12-21T05:08:33.049Z,78.20
2018-12-21T05:11:02.171Z,78.30
2018-12-21T05:13:31.735Z,78.00
2018-12-21T05:16:01.452Z,77.80
2018-12-21T05:18:30.119Z,77.20
2018-12-21T05:20:58.659Z,76.90
2018-12-21T05:23:27.540Z,76.90
2018-12-21T05:25:56.623Z,77.00
2018-12-21T05:28:26.067Z,76.70
2018-12-21T05:30:54.724Z,76.00
2018-12-21T05:33:23.482Z,76.10
2018-12-21T05:35:53.051Z,75.90
2018-12-21T05:38:22.329Z,75.90
2018-12-21T05:40:51.052Z,75.80
2018-12-21T05:43:20.381Z,75.70
2018-12-21T05:45:48.944Z,76.00
2018-12-21T05:48:17.732Z,75.30
2018-12-21T05:50:47.175Z,74.60
2018-12-21T05:53:17.715Z,74.40
2018-12-21T05:55:47.188Z,73.90
2018-12-21T05:58:15.937Z,73.30
2018-12-21T06:00:44.836Z,73.70
2018-12-21T06:03:13.404Z,73.80
2018-12-21T06:05:42.035Z,74.30
2018-12-21T06:08:10.597Z,73.50
2018-12-21T06:10:39.464Z,73.10
2018-12-21T06:13:09.037Z,73.60
2018-12-21T06:15:38.163Z,74.70
2018-12-21T06:18:07.081Z,75.80
2018-12-21T06:20:36.287Z,76.50
2018-12-21T06:23:09.497Z,77.10
2018-12-21T06:25:36.882Z,77.30
2018-12-21T06:28:06.363Z,77.30
2018-12-21T06:30:35.368Z,77.80
2018-12-21T06:33:04.432Z,77.90
2018-12-21T06:35:33.923Z,78.30
2018-12-21T06:38:02.524Z,77.80
2018-12-21T06:40:31.677Z,75.20
2018-12-21T06:43:00.544Z,75.40
2018-12-21T06:45:29.188Z,74.70
2018-12-21T06:47:58.400Z,74.20
2018-12-21T06:50:27.042Z,74.00
2018-12-21T06:52:56.412Z,73.70
2018-12-21T06:55:25.163Z,74.20
2018-12-21T06:57:54.157Z,74.20
2018-12-21T07:00:23.123Z,74.50
2018-12-21T07:02:52.105Z,74.10
2018-12-21T07:05:20.955Z,74.50
2018-12-21T07:07:49.896Z,74.80
2018-12-21T07:10:18.794Z,75.00
2018-12-21T07:12:48.305Z,75.20
2018-12-21T07:15:17.728Z,75.10
2018-12-21T07:17:46.408Z,75.20
2018-12-21T07:20:15.826Z,75.10
2018-12-21T07:22:47.683Z,75.20
2018-12-21T07:25:18.043Z,75.30
2018-12-21T07:27:47.397Z,74.20
2018-12-21T07:30:17.507Z,74.20
2018-12-21T07:32:46.315Z,73.70
2018-12-21T07:35:16.904Z,73.40
2018-12-21T07:37:46.181Z,72.60
2018-12-21T07:40:15.098Z,73.00
2018-12-21T07:42:44.711Z,73.10
2018-12-21T07:45:13.727Z,73.10
2018-12-21T07:47:42.740Z,77.20
2018-12-21T07:50:12.304Z,75.50
2018-12-21T07:52:41.701Z,74.50
2018-12-21T07:55:11.594Z,72.80
2018-12-21T07:57:40.295Z,75.10
2018-12-21T08:00:12.650Z,77.00
2018-12-21T08:02:42.170Z,76.40
2018-12-21T08:05:11.469Z,77.70
2018-12-21T08:07:40.240Z,78.20
2018-12-21T08:10:15.332Z,78.90
2018-12-21T08:12:44.062Z,80.20
2018-12-21T08:15:13.449Z,80.50
2018-12-21T08:17:43.004Z,82.80
2018-12-21T08:20:11.945Z,83.20
2018-12-21T08:22:41.216Z,83.40
2018-12-21T08:25:10.781Z,83.20
2018-12-21T08:27:40.257Z,84.00
2018-12-21T08:30:10.427Z,83.80
2018-12-21T08:32:40.177Z,84.50
2018-12-21T08:35:09.529Z,84.80
2018-12-21T08:37:38.521Z,85.00
2018-12-21T08:40:09.235Z,84.70
2018-12-21T08:42:37.838Z,85.30
2018-12-21T08:45:09.044Z,84.20
2018-12-21T08:47:37.741Z,84.00
2018-12-21T08:50:10.047Z,84.60
2018-12-21T08:52:39.383Z,84.10
2018-12-21T08:55:08.461Z,84.80
2018-12-21T08:57:37.096Z,84.30
2018-12-21T09:00:08.440Z,84.40
2018-12-21T09:02:37.891Z,84.10
2018-12-21T09:05:07.281Z,85.10
2018-12-21T09:07:37.333Z,85.50
2018-12-21T09:10:08.292Z,86.40
2018-12-21T09:12:38.273Z,85.60
2018-12-21T09:15:10.579Z,85.50
2018-12-21T09:17:39.675Z,86.50
2018-12-21T09:20:10.196Z,86.00
2018-12-21T09:22:39.274Z,86.60
2018-12-21T09:25:08.439Z,86.90
2018-12-21T09:27:38.068Z,88.00
2018-12-21T09:30:11.467Z,87.80
2018-12-21T09:32:40.588Z,87.60
2018-12-21T09:35:09.537Z,88.10
2018-12-21T09:37:38.382Z,88.10
2018-12-21T09:40:10.532Z,90.10
2018-12-21T09:42:40.171Z,90.50
2018-12-21T09:45:09.196Z,90.40
2018-12-21T09:47:37.905Z,90.20
2018-12-21T09:50:08.791Z,90.10
2018-12-21T09:52:38.272Z,90.00
2018-12-21T09:55:08.868Z,90.20
2018-12-21T09:57:38.486Z,90.30
2018-12-21T10:00:11.040Z,90.00
2018-12-21T10:02:41.448Z,90.00
2018-12-21T10:05:14.630Z,89.90
2018-12-21T10:07:44.198Z,90.10
2018-12-21T10:10:13.379Z,89.40
2018-12-21T10:12:42.578Z,89.60
2018-12-21T10:15:11.268Z,90.20
2018-12-21T10:17:40.652Z,90.00
2018-12-21T10:20:09.984Z,90.30
2018-12-21T10:22:39.773Z,90.30
2018-12-21T10:25:08.735Z,90.10
2018-12-21T10:27:37.786Z,90.20
2018-12-21T10:30:09.217Z,90.10
2018-12-21T10:32:38.120Z,90.30
2018-12-21T10:35:07.299Z,90.00
2018-12-21T10:37:35.991Z,90.70
2018-12-21T10:40:05.328Z,90.60
2018-12-21T10:42:34.581Z,90.00
2018-12-21T10:45:03.576Z,90.00
2018-12-21T10:47:33.112Z,90.00
2018-12-21T10:50:02.700Z,90.00
2018-12-21T10:52:32.851Z,90.10
2018-12-21T10:55:01.987Z,90.00
2018-12-21T10:57:30.749Z,89.60
2018-12-21T11:00:00.113Z,90.00
2018-12-21T11:02:29.164Z,90.10
2018-12-21T11:04:57.879Z,89.30
2018-12-21T11:07:26.630Z,89.60
2018-12-21T11:09:56.317Z,89.10
2018-12-21T11:12:24.920Z,89.40
2018-12-21T11:14:54.362Z,90.50
2018-12-21T11:17:23.893Z,90.20
2018-12-21T11:19:52.898Z,89.90
2018-12-21T11:22:21.772Z,89.90
2018-12-21T11:24:50.402Z,90.50
2018-12-21T11:27:20.088Z,90.70
2018-12-21T11:29:49.650Z,90.90
2018-12-21T11:32:20.086Z,91.20
2018-12-21T11:34:48.862Z,91.20
2018-12-21T11:37:17.947Z,91.10
2018-12-21T11:39:46.814Z,91.10
2018-12-21T11:42:16.100Z,91.10
2018-12-21T11:44:44.700Z,91.00
2018-12-21T11:47:14.354Z,90.90
2018-12-21T11:49:42.941Z,91.20
2018-12-21T11:52:12.206Z,90.90
2018-12-21T11:54:44.458Z,90.40
2018-12-21T11:57:12.403Z,90.40
2018-12-21T11:59:45.019Z,90.30
2018-12-21T12:02:19.537Z,90.10
2018-12-21T12:04:43.265Z,90.40
2018-12-21T12:07:12.504Z,90.20
2018-12-21T12:09:41.356Z,90.00
2018-12-21T12:12:10.520Z,90.30
2018-12-21T12:14:39.856Z,90.60
2018-12-21T12:17:08.642Z,90.70
2018-12-21T12:19:37.327Z,90.80
2018-12-21T12:22:06.447Z,90.90
2018-12-21T12:24:35.570Z,90.90
2018-12-21T12:27:04.400Z,90.70
2018-12-21T12:29:33.227Z,90.90
2018-12-21T12:32:02.047Z,91.20
2018-12-21T12:34:31.062Z,91.30
2018-12-21T12:37:00.474Z,91.30
2018-12-21T12:39:29.855Z,91.80
2018-12-21T12:41:59.509Z,92.10
2018-12-21T12:44:28.924Z,91.90
2018-12-21T12:46:58.505Z,92.50
2018-12-21T12:49:28.068Z,92.30
2018-12-21T12:51:56.880Z,92.20
2018-12-21T12:54:26.016Z,92.20
2018-12-21T12:56:55.103Z,92.50
2018-12-21T12:59:24.042Z,92.30
2018-12-21T13:01:53.696Z,92.40
2018-12-21T13:04:23.228Z,92.60
2018-12-21T13:06:52.748Z,92.30
2018-12-21T13:09:22.407Z,92.30
2018-12-21T13:11:51.954Z,92.20
2018-12-21T13:14:21.387Z,92.20
2018-12-21T13:16:50.640Z,92.70
2018-12-21T13:19:20.053Z,92.40
2018-12-21T13:21:49.001Z,92.50
2018-12-21T13:24:18.496Z,92.70
2018-12-21T13:26:48.101Z,92.60
2018-12-21T13:29:16.920Z,93.00
2018-12-21T13:31:45.986Z,93.40
2018-12-21T13:34:14.699Z,94.10
2018-12-21T13:36:44.562Z,94.20
2018-12-21T13:39:13.796Z,94.20
2018-12-21T13:41:43.039Z,94.60
2018-12-21T13:44:12.868Z,94.50
2018-12-21T13:46:41.644Z,94.50
2018-12-21T13:49:10.249Z,94.80
2018-12-21T13:51:39.176Z,94.90
2018-12-21T13:54:08.177Z,94.60
2018-12-21T13:56:37.203Z,94.60
2018-12-21T13:59:06.156Z,94.50
2018-12-21T14:01:35.281Z,94.60
2018-12-21T14:04:04.370Z,94.70
2018-12-21T14:06:33.945Z,94.70
2018-12-21T14:09:03.911Z,94.70
2018-12-21T14:11:32.882Z,95.00
2018-12-21T14:14:01.661Z,95.10
2018-12-21T14:16:30.860Z,95.20
2018-12-21T14:18:59.891Z,95.90
2018-12-21T14:21:28.857Z,95.80
2018-12-21T14:23:57.930Z,95.90
2018-12-21T14:26:27.166Z,95.50
2018-12-21T14:28:56.108Z,95.90
2018-12-21T14:31:25.482Z,96.20
2018-12-21T14:33:55.429Z,96.40
2018-12-21T14:36:24.184Z,96.60
2018-12-21T14:38:52.841Z,96.60
2018-12-21T14:41:21.695Z,96.90
2018-12-21T14:43:50.659Z,97.20
2018-12-21T14:46:19.759Z,96.70
2018-12-21T14:48:49.021Z,96.60
2018-12-21T14:51:18.522Z,96.50
2018-12-21T14:53:47.412Z,96.60
2018-12-21T14:56:16.159Z,96.40
2018-12-21T14:58:45.703Z,96.40
2018-12-21T15:01:14.886Z,96.40
2018-12-21T15:03:44.269Z,96.50
2018-12-21T15:06:12.912Z,96.60
2018-12-21T15:08:41.885Z,96.20
2018-12-21T15:11:10.881Z,96.30
2018-12-21T15:13:39.932Z,96.50
2018-12-21T15:16:08.750Z,96.60
2018-12-21T15:18:37.858Z,96.40
2018-12-21T15:21:06.788Z,96.30
2018-12-21T15:23:35.712Z,96.20
2018-12-21T15:26:04.707Z,96.00
2018-12-21T15:28:33.524Z,96.00
2018-12-21T15:31:02.400Z,95.90
2018-12-21T15:33:31.323Z,95.90
2018-12-21T15:36:00.979Z,95.80
2018-12-21T15:38:30.622Z,95.80
2018-12-21T15:40:59.963Z,95.70
2018-12-21T15:43:28.834Z,95.70
2018-12-21T15:45:57.977Z,95.80
2018-12-21T15:48:26.583Z,95.70
2018-12-21T15:50:55.204Z,95.70
2018-12-21T15:53:24.673Z,95.50
2018-12-21T15:55:54.944Z,95.40
2018-12-21T15:58:25.209Z,95.40
2018-12-21T16:00:54.432Z,95.30
2018-12-21T16:03:23.939Z,95.30
2018-12-21T16:05:53.318Z,95.30
2018-12-21T16:08:23.006Z,95.30
2018-12-21T16:10:52.161Z,95.20
2018-12-21T16:13:21.517Z,95.20
2018-12-21T16:15:50.891Z,95.00
2018-12-21T16:18:19.857Z,95.00
2018-12-21T16:20:49.274Z,94.90
2018-12-21T16:23:18.196Z,94.90
2018-12-21T16:25:47.806Z,94.90
2018-12-21T16:28:16.648Z,94.90
2018-12-21T16:30:45.627Z,94.60
2018-12-21T16:33:17.827Z,94.60
2018-12-21T16:35:47.722Z,94.80
2018-12-21T16:38:16.691Z,94.80
2018-12-21T16:40:45.858Z,94.70
2018-12-21T16:43:15.132Z,94.50
2018-12-21T16:45:44.192Z,94.50
2018-12-21T16:48:14.174Z,94.50
2018-12-21T16:50:42.822Z,94.50
2018-12-21T16:53:12.285Z,94.50
2018-12-21T16:55:41.808Z,94.40
2018-12-21T16:58:11.191Z,94.30
2018-12-21T17:00:41.036Z,94.30
2018-12-21T17:03:16.367Z,94.50
2018-12-21T17:05:45.843Z,94.50
2018-12-21T17:08:15.473Z,94.20
2018-12-21T17:10:45.068Z,94.30
2018-12-21T17:13:14.096Z,94.30
2018-12-21T17:15:43.079Z,94.40
2018-12-21T17:18:12.728Z,94.30
2018-12-21T17:20:42.708Z,94.30
2018-12-21T17:23:11.276Z,94.10
2018-12-21T17:25:40.393Z,94.10
2018-12-21T17:28:09.980Z,94.20
2018-12-21T17:30:39.617Z,94.20
2018-12-21T17:33:08.487Z,94.20
2018-12-21T17:35:37.600Z,94.10
2018-12-21T17:38:07.156Z,94.10
2018-12-21T17:40:36.576Z,94.20
2018-12-21T17:43:05.808Z,94.30
2018-12-21T17:45:34.597Z,94.30
2018-12-21T17:48:03.841Z,94.30
2018-12-21T17:50:32.774Z,94.30
2018-12-21T17:53:02.196Z,94.30
2018-12-21T17:55:30.808Z,94.30
2018-12-21T17:58:00.464Z,94.60
2018-12-21T18:00:29.563Z,94.70
2018-12-21T18:02:59.170Z,94.70
2018-12-21T18:05:28.042Z,94.80
2018-12-21T18:07:57.776Z,94.90
2018-12-21T18:10:26.680Z,94.90
2018-12-21T18:12:55.575Z,95.10
2018-12-21T18:15:25.078Z,95.10
2018-12-21T18:17:53.684Z,95.10
2018-12-21T18:20:23.291Z,95.50
2018-12-21T18:22:53.056Z,95.20
2018-12-21T18:25:25.376Z,95.10
2018-12-21T18:27:56.977Z,95.10
2018-12-21T18:30:36.041Z,95.00
2018-12-21T18:33:10.961Z,95.00
2018-12-21T18:35:39.153Z,95.10
2018-12-21T18:38:12.767Z,95.10
2018-12-21T18:40:42.227Z,95.20
2018-12-21T18:43:17.455Z,95.30
2018-12-21T18:45:47.305Z,95.30
2018-12-21T18:48:16.156Z,95.20
2018-12-21T18:50:45.080Z,95.50
2018-12-21T18:53:14.369Z,95.10
2018-12-21T18:55:44.464Z,94.90
2018-12-21T18:58:13.703Z,95.00
2018-12-21T19:00:42.583Z,94.80
2018-12-21T19:03:11.292Z,94.90
2018-12-21T19:05:40.611Z,94.90
2018-12-21T19:08:10.118Z,94.90
2018-12-21T19:10:39.813Z,94.90
2018-12-21T19:13:09.396Z,94.80
2018-12-21T19:15:38.037Z,94.70
2018-12-21T19:18:06.751Z,94.70
2018-12-21T19:20:35.859Z,94.60
2018-12-21T19:23:04.608Z,94.60
2018-12-21T19:25:33.691Z,94.50
2018-12-21T19:28:03.140Z,94.40
2018-12-21T19:30:32.035Z,94.50
2018-12-21T19:33:01.645Z,94.70
2018-12-21T19:35:32.172Z,94.70
2018-12-21T19:38:01.748Z,94.80
2018-12-21T19:40:31.368Z,95.00
2018-12-21T19:43:00.825Z,95.10
2018-12-21T19:45:29.544Z,95.10
2018-12-21T19:47:58.269Z,95.50
2018-12-21T19:50:26.947Z,95.10
2018-12-21T19:52:55.550Z,95.10
2018-12-21T19:55:32.148Z,95.00
2018-12-21T19:58:02.066Z,94.90
2018-12-21T20:00:30.638Z,95.00
2018-12-21T20:02:59.490Z,95.00
2018-12-21T20:05:28.189Z,95.00
2018-12-21T20:07:57.001Z,94.90
2018-12-21T20:10:25.853Z,95.00
2018-12-21T20:12:54.869Z,95.00
2018-12-21T20:15:23.757Z,95.00
2018-12-21T20:17:52.736Z,95.00
2018-12-21T20:20:21.828Z,95.10
2018-12-21T20:22:51.430Z,95.10
2018-12-21T20:25:20.124Z,95.40
2018-12-21T20:27:49.217Z,95.10
2018-12-21T20:30:19.967Z,95.10
2018-12-21T20:32:49.685Z,95.10
2018-12-21T20:35:19.329Z,95.20
2018-12-21T20:37:48.206Z,95.40
2018-12-21T20:40:17.255Z,95.70
2018-12-21T20:42:46.867Z,95.70
2018-12-21T20:45:15.662Z,95.70
2018-12-21T20:47:44.475Z,95.70
2018-12-21T20:50:15.655Z,95.80
2018-12-21T20:52:44.960Z,96.10
2018-12-21T20:55:14.588Z,95.90
2018-12-21T20:57:45.575Z,95.90
2018-12-21T21:00:15.654Z,96.00
2018-12-21T21:02:45.117Z,96.10
2018-12-21T21:05:13.901Z,96.20
2018-12-21T21:07:43.081Z,96.10
2018-12-21T21:10:12.702Z,96.10
2018-12-21T21:12:41.839Z,96.10
2018-12-21T21:15:12.111Z,96.10
2018-12-21T21:17:40.905Z,96.10
2018-12-21T21:20:12.566Z,96.10
2018-12-21T21:22:41.400Z,96.10
2018-12-21T21:25:10.114Z,96.00
2018-12-21T21:27:39.569Z,95.90
2018-12-21T21:30:13.003Z,96.00
2018-12-21T21:32:41.714Z,96.00
2018-12-21T21:35:10.837Z,96.00
2018-12-21T21:37:40.679Z,96.10
2018-12-21T21:40:14.963Z,96.00
2018-12-21T21:42:43.617Z,96.10
2018-12-21T21:45:12.980Z,96.00
2018-12-21T21:47:42.605Z,96.20
2018-12-21T21:50:12.450Z,96.00
2018-12-21T21:52:41.383Z,96.10
2018-12-21T21:55:10.533Z,96.10
2018-12-21T21:57:39.838Z,96.10
2018-12-21T22:00:11.980Z,96.10
2018-12-21T22:02:41.058Z,96.10
2018-12-21T22:05:09.809Z,96.20
2018-12-21T22:07:39.028Z,96.10
2018-12-21T22:10:10.844Z,96.20
2018-12-21T22:12:39.813Z,96.20
2018-12-21T22:15:09.903Z,96.20
2018-12-21T22:17:38.745Z,96.20
2018-12-21T22:20:10.954Z,96.30
2018-12-21T22:22:39.515Z,96.20
2018-12-21T22:25:08.917Z,96.20
2018-12-21T22:27:37.913Z,96.30
2018-12-21T22:30:10.007Z,96.30
2018-12-21T22:32:38.990Z,96.30
2018-12-21T22:35:08.888Z,96.30
2018-12-21T22:37:37.677Z,96.30
2018-12-21T22:40:08.023Z,96.30
2018-12-21T22:42:37.322Z,96.40
2018-12-21T22:45:07.388Z,96.50
2018-12-21T22:47:36.372Z,96.50
2018-12-21T22:50:06.536Z,96.20
2018-12-21T22:52:35.643Z,96.20
2018-12-21T22:55:05.237Z,96.00
2018-12-21T22:57:33.850Z,96.00
2018-12-21T23:00:04.711Z,95.90
2018-12-21T23:02:33.853Z,96.00
2018-12-21T23:05:02.641Z,95.60
2018-12-21T23:07:31.737Z,95.60
2018-12-21T23:10:01.741Z,95.60
2018-12-21T23:12:30.461Z,95.60
2018-12-21T23:14:59.486Z,95.60
2018-12-21T23:17:29.041Z,95.10
2018-12-21T23:19:57.738Z,95.10
2018-12-21T23:22:27.455Z,94.90
2018-12-21T23:24:56.150Z,94.70
2018-12-21T23:27:25.102Z,94.40
2018-12-21T23:29:53.739Z,94.50
2018-12-21T23:32:22.996Z,94.40
2018-12-21T23:34:52.709Z,93.90
2018-12-21T23:37:21.460Z,93.80
2018-12-21T23:39:51.216Z,93.80
2018-12-21T23:42:20.119Z,93.60
2018-12-21T23:44:49.164Z,93.50
2018-12-21T23:47:18.325Z,93.30
2018-12-21T23:49:47.276Z,93.20
2018-12-21T23:52:16.199Z,93.30
2018-12-21T23:54:46.012Z,93.00
2018-12-21T23:57:15.143Z,93.00
2018-12-21T23:59:45.017Z,92.80
